createdAt,value
2023-05-16T00:00:53.616Z,12.05
2023-05-16T00:03:59.921Z,12.21
2023-05-16T00:07:07.584Z,12.37
2023-05-16T00:10:13.815Z,12.34
2023-05-16T00:13:25.273Z,12.17
2023-05-16T00:16:31.677Z,12.19
2023-05-16T00:19:37.814Z,12.15
2023-05-16T00:22:46.367Z,12.23
2023-05-16T00:25:52.519Z,12.19
2023-05-16T00:28:58.436Z,12.29
2023-05-16T00:32:04.700Z,12.51
2023-05-16T00:35:11.877Z,12.50
2023-05-16T00:38:19.256Z,12.43
2023-05-16T00:41:26.454Z,12.39
2023-05-16T00:44:32.785Z,12.14
2023-05-16T00:47:39.045Z,12.17
2023-05-16T00:50:45.654Z,12.41
2023-05-16T00:53:53.512Z,12.39
2023-05-16T00:56:59.716Z,12.60
2023-05-16T01:00:09.620Z,12.55
2023-05-16T01:03:16.120Z,12.28
2023-05-16T01:06:22.489Z,12.03
2023-05-16T01:09:30.593Z,12.07
2023-05-16T01:12:42.483Z,12.11
2023-05-16T01:15:52.057Z,11.66
2023-05-16T01:19:08.329Z,11.24
2023-05-16T01:22:21.749Z,11.76
2023-05-16T01:25:47.478Z,12.27
2023-05-16T01:28:55.921Z,12.09
2023-05-16T01:32:01.887Z,12.31
2023-05-16T01:35:10.901Z,12.15
2023-05-16T01:38:24.832Z,12.14
2023-05-16T01:41:45.061Z,12.16
2023-05-16T01:45:02.077Z,12.30
2023-05-16T01:48:12.080Z,12.36
2023-05-16T01:51:19.212Z,12.37
2023-05-16T01:54:27.642Z,12.28
2023-05-16T01:57:34.060Z,12.24
2023-05-16T02:00:41.797Z,12.18
2023-05-16T02:03:48.478Z,12.25
2023-05-16T02:06:54.893Z,12.21
2023-05-16T02:10:00.973Z,12.08
2023-05-16T02:13:06.994Z,12.36
2023-05-16T02:16:14.404Z,12.06
2023-05-16T02:19:20.977Z,12.06
2023-05-16T02:22:26.938Z,11.98
2023-05-16T02:25:33.108Z,11.71
2023-05-16T02:28:39.151Z,11.38
2023-05-16T02:31:47.482Z,11.39
2023-05-16T02:34:53.782Z,11.46
2023-05-16T02:37:59.887Z,11.46
2023-05-16T02:41:06.475Z,11.73
2023-05-16T02:44:12.527Z,11.79
2023-05-16T02:47:20.110Z,12.01
2023-05-16T02:50:26.126Z,11.94
2023-05-16T02:53:31.997Z,11.72
2023-05-16T02:56:38.010Z,11.72
2023-05-16T02:59:44.194Z,11.59
2023-05-16T03:02:51.899Z,11.68
2023-05-16T03:05:58.202Z,11.84
2023-05-16T03:09:04.514Z,11.97
2023-05-16T03:12:11.015Z,12.07
2023-05-16T03:15:17.168Z,12.01
2023-05-16T03:18:24.758Z,11.89
2023-05-16T03:21:31.443Z,11.90
2023-05-16T03:24:37.800Z,11.89
2023-05-16T03:27:43.888Z,11.76
2023-05-16T03:30:50.067Z,11.81
2023-05-16T03:33:57.770Z,11.69
2023-05-16T03:37:03.773Z,11.92
2023-05-16T03:40:11.375Z,11.95
2023-05-16T03:43:17.555Z,12.04
2023-05-16T03:46:23.903Z,11.60
2023-05-16T03:49:31.212Z,11.83
2023-05-16T03:52:37.312Z,11.81
2023-05-16T03:55:44.005Z,11.73
2023-05-16T03:58:50.209Z,11.57
2023-05-16T04:01:56.081Z,11.61
2023-05-16T04:05:03.424Z,11.57
2023-05-16T04:08:09.889Z,11.97
2023-05-16T04:11:16.163Z,11.91
2023-05-16T04:14:22.311Z,12.27
2023-05-16T04:17:28.823Z,12.45
2023-05-16T04:20:36.684Z,12.63
2023-05-16T04:23:42.968Z,12.60
2023-05-16T04:26:48.951Z,12.68
2023-05-16T04:29:55.130Z,12.81
2023-05-16T04:33:01.623Z,12.92
2023-05-16T04:36:09.370Z,13.03
2023-05-16T04:39:15.355Z,13.06
2023-05-16T04:42:21.450Z,13.24
2023-05-16T04:45:27.655Z,13.60
2023-05-16T04:48:34.037Z,13.64
2023-05-16T04:51:41.545Z,13.41
2023-05-16T04:54:47.683Z,13.76
2023-05-16T04:57:53.959Z,14.00
2023-05-16T05:01:01.910Z,13.97
2023-05-16T05:04:08.340Z,13.95
2023-05-16T05:07:16.064Z,14.19
2023-05-16T05:10:22.659Z,14.39
2023-05-16T05:13:28.842Z,14.44
2023-05-16T05:16:35.251Z,14.09
2023-05-16T05:19:41.707Z,14.10
2023-05-16T05:22:49.179Z,14.23
2023-05-16T05:25:55.513Z,14.21
2023-05-16T05:29:05.648Z,14.39
2023-05-16T05:32:12.598Z,14.99
2023-05-16T05:35:19.257Z,14.12
2023-05-16T05:38:26.954Z,14.79
2023-05-16T05:41:33.027Z,14.69
2023-05-16T05:44:39.182Z,14.43
2023-05-16T05:47:45.575Z,15.16
2023-05-16T05:50:53.264Z,15.52
2023-05-16T05:54:00.906Z,15.56
2023-05-16T05:57:07.442Z,15.58
2023-05-16T06:00:14.468Z,15.71
2023-05-16T06:03:21.374Z,15.84
2023-05-16T06:06:27.749Z,16.19
2023-05-16T06:09:35.312Z,15.73
2023-05-16T06:12:41.626Z,16.12
2023-05-16T06:15:51.856Z,17.16
2023-05-16T06:18:58.128Z,16.65
2023-05-16T06:22:04.126Z,16.37
2023-05-16T06:25:11.971Z,16.44
2023-05-16T06:28:17.957Z,16.74
2023-05-16T06:31:24.113Z,17.19
2023-05-16T06:34:31.098Z,17.62
2023-05-16T06:37:37.451Z,17.70
2023-05-16T06:40:45.573Z,17.62
2023-05-16T06:43:51.844Z,17.78
2023-05-16T06:46:59.014Z,18.36
2023-05-16T06:50:06.285Z,17.79
2023-05-16T06:53:12.517Z,17.78
2023-05-16T06:56:19.989Z,17.94
2023-05-16T06:59:28.076Z,17.98
2023-05-16T07:02:34.775Z,17.61
2023-05-16T07:05:42.000Z,17.86
2023-05-16T07:08:48.514Z,18.32
2023-05-16T07:11:56.120Z,18.24
2023-05-16T07:15:02.685Z,17.67
2023-05-16T07:18:08.933Z,18.34
2023-05-16T07:21:15.246Z,18.34
2023-05-16T07:24:21.479Z,18.13
2023-05-16T07:27:29.249Z,18.05
2023-05-16T07:30:35.367Z,18.20
2023-05-16T07:33:41.427Z,18.04
2023-05-16T07:36:47.772Z,18.47
2023-05-16T07:39:53.927Z,18.88
2023-05-16T07:43:02.893Z,18.78
2023-05-16T07:46:09.215Z,18.75
2023-05-16T07:49:15.695Z,18.64
2023-05-16T07:52:22.476Z,18.73
2023-05-16T07:55:28.862Z,18.83
2023-05-16T07:58:36.639Z,18.35
2023-05-16T08:01:45.836Z,19.02
2023-05-16T08:04:52.128Z,19.37
2023-05-16T08:07:58.711Z,19.37
2023-05-16T08:11:05.907Z,18.56
2023-05-16T08:14:13.668Z,18.83
2023-05-16T08:17:20.220Z,18.77
2023-05-16T08:20:26.445Z,18.39
2023-05-16T08:23:32.815Z,18.59
2023-05-16T08:26:39.108Z,18.28
2023-05-16T08:29:46.784Z,18.32
2023-05-16T08:32:53.362Z,18.23
2023-05-16T08:36:01.021Z,18.45
2023-05-16T08:39:07.590Z,17.91
2023-05-16T08:42:14.379Z,18.13
2023-05-16T08:45:22.325Z,18.17
2023-05-16T08:48:30.379Z,18.88
2023-05-16T08:51:38.449Z,18.75
2023-05-16T08:54:48.524Z,19.21
2023-05-16T08:58:02.213Z,19.09
2023-05-16T09:01:10.904Z,18.82
2023-05-16T09:04:17.803Z,18.44
2023-05-16T09:07:24.177Z,18.44
2023-05-16T09:10:30.173Z,18.68
2023-05-16T09:13:36.533Z,18.79
2023-05-16T09:16:44.090Z,18.86
2023-05-16T09:19:53.117Z,19.02
2023-05-16T09:23:00.628Z,19.02
2023-05-16T09:26:08.379Z,19.38
2023-05-16T09:29:15.407Z,19.16
2023-05-16T09:32:23.013Z,18.76
2023-05-16T09:38:39.439Z,18.81
2023-05-16T09:41:46.093Z,19.26
2023-05-16T09:44:56.461Z,19.74
2023-05-16T09:48:06.818Z,20.49
2023-05-16T09:51:14.025Z,20.04
2023-05-16T09:54:32.960Z,20.34
2023-05-16T09:57:40.696Z,20.13
2023-05-16T10:00:47.628Z,19.76
2023-05-16T10:03:55.573Z,20.12
2023-05-16T10:07:04.250Z,20.33
2023-05-16T10:10:12.148Z,19.97
2023-05-16T10:13:18.389Z,20.25
2023-05-16T10:16:25.753Z,20.51
2023-05-16T10:19:34.000Z,21.06
2023-05-16T10:22:44.392Z,21.69
2023-05-16T10:25:51.490Z,21.74
2023-05-16T10:28:58.126Z,21.10
2023-05-16T10:32:06.702Z,20.11
2023-05-16T10:35:15.141Z,20.60
2023-05-16T10:38:24.591Z,20.89
2023-05-16T10:41:31.473Z,21.67
2023-05-16T10:44:42.718Z,22.14
2023-05-16T10:47:58.416Z,20.77
2023-05-16T10:51:36.776Z,20.60
2023-05-16T10:54:44.668Z,20.81
2023-05-16T10:57:50.736Z,20.71
2023-05-16T11:01:25.715Z,20.42
2023-05-16T11:04:47.744Z,20.37
2023-05-16T11:08:07.413Z,19.97
2023-05-16T11:11:41.257Z,20.41
2023-05-16T11:14:52.982Z,20.25
2023-05-16T11:18:07.085Z,19.81
2023-05-16T11:21:13.647Z,19.95
2023-05-16T11:24:36.371Z,19.97
2023-05-16T11:27:45.292Z,19.96
2023-05-16T11:30:55.318Z,20.31
2023-05-16T11:34:01.803Z,21.37
2023-05-16T11:37:08.371Z,21.17
2023-05-16T11:40:17.460Z,21.06
2023-05-16T11:43:23.444Z,20.05
2023-05-16T11:46:29.618Z,20.16
2023-05-16T11:49:36.851Z,20.28
2023-05-16T11:52:46.049Z,20.26
2023-05-16T11:55:55.899Z,21.60
2023-05-16T11:59:02.806Z,21.50
2023-05-16T12:02:09.999Z,22.25
2023-05-16T12:05:17.413Z,21.44
2023-05-16T12:08:24.825Z,20.47
2023-05-16T12:11:32.934Z,20.14
2023-05-16T12:14:39.072Z,20.68
2023-05-16T12:17:45.672Z,21.38
2023-05-16T12:20:53.288Z,21.35
2023-05-16T12:24:00.145Z,21.43
2023-05-16T12:27:10.051Z,21.78
2023-05-16T12:30:18.438Z,22.09
2023-05-16T12:33:24.502Z,22.36
2023-05-16T12:36:34.563Z,23.01
2023-05-16T12:39:40.794Z,21.74
2023-05-16T12:42:52.173Z,22.12
2023-05-16T12:45:59.331Z,22.19
2023-05-16T12:49:06.557Z,21.96
2023-05-16T12:52:23.629Z,22.64
2023-05-16T12:55:30.122Z,22.48
2023-05-16T12:58:37.878Z,21.88
2023-05-16T13:02:02.999Z,21.82
2023-05-16T13:05:10.451Z,21.19
2023-05-16T13:08:16.875Z,21.26
2023-05-16T13:11:23.103Z,21.27
2023-05-16T13:14:30.797Z,21.10
2023-05-16T13:17:37.439Z,20.96
2023-05-16T13:20:44.595Z,21.32
2023-05-16T13:23:51.088Z,20.96
2023-05-16T13:26:58.216Z,21.35
2023-05-16T13:30:07.491Z,21.36
2023-05-16T13:33:14.029Z,21.03
2023-05-16T13:36:20.192Z,21.09
2023-05-16T13:39:26.474Z,20.75
2023-05-16T13:42:33.006Z,20.48
2023-05-16T13:45:40.939Z,20.13
2023-05-16T13:48:47.164Z,20.42
2023-05-16T13:51:53.772Z,20.24
2023-05-16T13:55:02.499Z,20.46
2023-05-16T13:58:08.709Z,20.19
2023-05-16T14:01:16.109Z,20.63
2023-05-16T14:04:22.880Z,20.62
2023-05-16T14:07:29.383Z,20.60
2023-05-16T14:10:35.608Z,21.02
2023-05-16T14:13:41.777Z,21.04
2023-05-16T14:16:49.448Z,20.78
2023-05-16T14:19:55.436Z,20.66
2023-05-16T14:23:01.329Z,20.48
2023-05-16T14:26:07.908Z,20.21
2023-05-16T14:29:14.261Z,20.65
2023-05-16T14:32:22.251Z,20.20
2023-05-16T14:35:29.125Z,19.94
2023-05-16T14:38:35.667Z,19.96
2023-05-16T14:41:42.067Z,19.62
2023-05-16T14:44:48.218Z,19.70
2023-05-16T14:47:55.907Z,19.12
2023-05-16T14:51:02.120Z,19.41
2023-05-16T14:54:09.622Z,19.30
2023-05-16T14:57:15.888Z,19.31
2023-05-16T15:00:26.286Z,19.57
2023-05-16T15:03:46.828Z,19.07
2023-05-16T15:06:57.328Z,18.90
2023-05-16T15:10:03.771Z,18.88
2023-05-16T15:13:10.139Z,18.84
2023-05-16T15:16:16.874Z,18.85
2023-05-16T15:19:24.950Z,19.36
2023-05-16T15:22:31.167Z,18.88
2023-05-16T15:25:37.514Z,18.73
2023-05-16T15:28:43.786Z,18.65
2023-05-16T15:31:50.107Z,18.58
2023-05-16T15:34:57.417Z,18.41
2023-05-16T15:38:04.049Z,18.26
2023-05-16T15:41:22.399Z,18.09
2023-05-16T15:44:37.253Z,18.06
2023-05-16T15:47:43.687Z,17.91
2023-05-16T15:50:51.336Z,17.91
2023-05-16T15:53:57.407Z,17.52
2023-05-16T15:57:03.732Z,17.16
2023-05-16T16:00:10.990Z,17.21
2023-05-16T16:03:17.245Z,16.98
2023-05-16T16:06:25.057Z,16.93
2023-05-16T16:09:31.357Z,16.88
2023-05-16T16:12:37.523Z,16.96
2023-05-16T16:15:43.945Z,16.78
2023-05-16T16:18:50.579Z,16.81
2023-05-16T16:21:58.564Z,16.66
2023-05-16T16:25:05.714Z,16.61
2023-05-16T16:28:12.349Z,16.59
2023-05-16T16:31:18.771Z,16.47
2023-05-16T16:34:24.948Z,16.49
2023-05-16T16:37:32.587Z,16.44
2023-05-16T16:40:39.029Z,16.48
2023-05-16T16:43:45.404Z,16.57
2023-05-16T16:46:51.775Z,16.41
2023-05-16T16:49:57.984Z,16.39
2023-05-16T16:53:05.648Z,16.18
2023-05-16T16:56:11.647Z,16.23
2023-05-16T16:59:18.022Z,16.22
2023-05-16T17:02:24.312Z,16.17
2023-05-16T17:05:30.609Z,16.09
2023-05-16T17:08:38.037Z,16.15
2023-05-16T17:11:46.914Z,16.15
2023-05-16T17:14:53.677Z,16.06
2023-05-16T17:18:00.069Z,16.19
2023-05-16T17:21:06.414Z,16.04
2023-05-16T17:24:14.007Z,16.03
2023-05-16T17:27:20.317Z,15.90
2023-05-16T17:30:26.866Z,15.83
2023-05-16T17:33:33.033Z,15.92
2023-05-16T17:36:39.264Z,15.84
2023-05-16T17:39:46.830Z,15.92
2023-05-16T17:42:53.189Z,15.73
2023-05-16T17:45:59.370Z,15.69
2023-05-16T17:49:06.927Z,15.56
2023-05-16T17:52:13.371Z,15.55
2023-05-16T17:55:20.952Z,15.37
2023-05-16T17:58:27.236Z,15.44
2023-05-16T18:01:33.470Z,15.48
2023-05-16T18:04:39.964Z,15.43
2023-05-16T18:07:45.929Z,15.31
2023-05-16T18:10:53.547Z,15.35
2023-05-16T18:13:59.741Z,15.40
2023-05-16T18:17:06.145Z,15.35
2023-05-16T18:20:13.632Z,15.29
2023-05-16T18:23:19.681Z,15.25
2023-05-16T18:26:28.923Z,15.29
2023-05-16T18:29:35.314Z,15.29
2023-05-16T18:32:41.872Z,15.39
2023-05-16T18:35:47.901Z,15.13
2023-05-16T18:38:53.989Z,15.20
2023-05-16T18:42:01.723Z,15.16
2023-05-16T18:45:08.799Z,15.13
2023-05-16T18:48:15.091Z,15.25
2023-05-16T18:51:21.997Z,15.23
2023-05-16T18:54:28.455Z,15.19
2023-05-16T18:57:36.497Z,15.13
2023-05-16T19:00:42.806Z,15.08
2023-05-16T19:03:49.399Z,15.14
2023-05-16T19:06:56.481Z,15.08
2023-05-16T19:10:03.974Z,15.03
2023-05-16T19:13:12.041Z,15.06
2023-05-16T19:16:18.477Z,14.96
2023-05-16T19:19:24.576Z,14.94
2023-05-16T19:22:31.058Z,14.96
2023-05-16T19:25:37.319Z,14.89
2023-05-16T19:28:44.755Z,14.82
2023-05-16T19:31:50.998Z,14.84
2023-05-16T19:34:56.975Z,14.78
2023-05-16T19:38:03.577Z,14.92
2023-05-16T19:41:09.943Z,14.76
2023-05-16T19:44:17.549Z,14.67
2023-05-16T19:47:23.997Z,14.63
2023-05-16T19:50:30.337Z,14.66
2023-05-16T19:53:36.970Z,14.57
2023-05-16T19:56:43.548Z,14.67
2023-05-16T19:59:51.062Z,14.58
2023-05-16T20:02:57.251Z,14.40
2023-05-16T20:06:03.695Z,14.37
2023-05-16T20:09:11.382Z,14.35
2023-05-16T20:12:17.980Z,14.44
2023-05-16T20:15:25.609Z,14.35
2023-05-16T20:18:32.172Z,14.32
2023-05-16T20:21:38.142Z,14.29
2023-05-16T20:24:43.987Z,14.29
2023-05-16T20:27:50.046Z,14.33
2023-05-16T20:30:57.642Z,14.23
2023-05-16T20:34:04.027Z,14.22
2023-05-16T20:37:10.492Z,14.21
2023-05-16T20:40:16.667Z,14.22
2023-05-16T20:43:24.093Z,14.27
2023-05-16T20:46:32.843Z,14.24
2023-05-16T20:49:39.896Z,14.20
2023-05-16T20:52:46.373Z,14.16
2023-05-16T20:55:52.563Z,14.04
2023-05-16T20:58:58.626Z,14.01
2023-05-16T21:02:09.849Z,13.83
2023-05-16T21:05:25.036Z,13.78
2023-05-16T21:08:31.389Z,13.86
2023-05-16T21:11:37.599Z,13.82
2023-05-16T21:14:44.362Z,13.79
2023-05-16T21:17:52.080Z,13.64
2023-05-16T21:20:58.265Z,13.65
2023-05-16T21:24:05.562Z,13.60
2023-05-16T21:27:13.095Z,13.60
2023-05-16T21:30:19.390Z,13.63
2023-05-16T21:33:27.314Z,13.51
2023-05-16T21:36:33.370Z,13.46
2023-05-16T21:39:39.474Z,13.57
2023-05-16T21:42:45.777Z,13.63
2023-05-16T21:45:51.756Z,13.41
2023-05-16T21:48:59.236Z,13.54
2023-05-16T21:52:07.377Z,13.60
2023-05-16T21:55:13.941Z,13.54
2023-05-16T21:58:20.407Z,13.55
2023-05-16T22:01:28.325Z,13.46
2023-05-16T22:04:36.226Z,13.54
2023-05-16T22:07:42.863Z,13.48
2023-05-16T22:10:49.056Z,13.39
2023-05-16T22:13:55.313Z,13.41
2023-05-16T22:17:01.556Z,13.46
2023-05-16T22:20:10.256Z,13.55
2023-05-16T22:23:16.831Z,13.52
2023-05-16T22:26:22.896Z,13.17
2023-05-16T22:29:29.240Z,13.09
2023-05-16T22:32:35.851Z,13.07
2023-05-16T22:35:43.123Z,13.30
2023-05-16T22:38:49.438Z,13.39
2023-05-16T22:41:55.431Z,13.37
2023-05-16T22:45:01.496Z,13.48
2023-05-16T22:48:07.607Z,13.47
2023-05-16T22:51:15.526Z,13.52
2023-05-16T22:54:21.747Z,13.38
2023-05-16T22:57:28.161Z,13.43
2023-05-16T23:00:34.338Z,13.42
2023-05-16T23:03:40.742Z,13.34
2023-05-16T23:06:48.719Z,13.48
2023-05-16T23:09:54.806Z,13.33
2023-05-16T23:13:01.273Z,13.41
2023-05-16T23:16:07.704Z,13.31
2023-05-16T23:19:14.114Z,13.03
2023-05-16T23:22:21.637Z,13.02
2023-05-16T23:25:28.126Z,12.92
2023-05-16T23:28:34.465Z,12.91
2023-05-16T23:31:40.574Z,13.13
2023-05-16T23:34:47.165Z,13.14
2023-05-16T23:37:55.069Z,13.07
2023-05-16T23:41:01.329Z,13.20
2023-05-16T23:44:08.004Z,13.28
2023-05-16T23:47:14.370Z,13.25
2023-05-16T23:50:21.117Z,13.15
2023-05-16T23:53:31.153Z,13.11
2023-05-16T23:56:37.292Z,13.08
2023-05-16T23:59:43.918Z,13.20
